createdAt,value
2023-05-09T00:00:11.034Z,54.39
2023-05-09T00:01:14.281Z,54.03
2023-05-09T00:02:16.260Z,54.52
2023-05-09T00:03:18.097Z,54.16
2023-05-09T00:04:20.993Z,54.45
2023-05-09T00:05:23.036Z,54.91
2023-05-09T00:06:27.667Z,54.18
2023-05-09T00:07:30.235Z,54.74
2023-05-09T00:08:32.094Z,54.92
2023-05-09T00:09:33.888Z,55.00
2023-05-09T00:10:36.661Z,54.66
2023-05-09T00:11:39.201Z,54.50
2023-05-09T00:12:43.593Z,54.73
2023-05-09T00:13:46.095Z,54.58
2023-05-09T00:14:51.696Z,54.23
2023-05-09T00:15:57.423Z,55.06
2023-05-09T00:16:59.999Z,54.39
2023-05-09T00:18:01.759Z,55.03
2023-05-09T00:19:04.497Z,55.22
2023-05-09T00:20:12.117Z,54.54
2023-05-09T00:21:13.992Z,55.53
2023-05-09T00:22:17.722Z,54.71
2023-05-09T00:23:19.820Z,54.40
2023-05-09T00:24:21.598Z,54.67
2023-05-09T00:25:23.560Z,54.77
2023-05-09T00:26:26.264Z,55.34
2023-05-09T00:27:30.543Z,55.76
2023-05-09T00:28:32.771Z,55.31
2023-05-09T00:29:34.527Z,54.82
2023-05-09T00:30:36.264Z,55.16
2023-05-09T00:31:38.004Z,54.85
2023-05-09T00:32:41.355Z,54.51
2023-05-09T00:33:43.212Z,54.64
2023-05-09T00:34:44.960Z,55.45
2023-05-09T00:35:47.098Z,55.03
2023-05-09T00:36:49.832Z,55.36
2023-05-09T00:37:51.579Z,55.28
2023-05-09T00:38:53.355Z,55.06
2023-05-09T00:39:55.308Z,55.26
2023-05-09T00:40:57.123Z,54.39
2023-05-09T00:41:58.937Z,55.04
2023-05-09T00:43:00.661Z,54.50
2023-05-09T00:44:02.500Z,55.45
2023-05-09T00:45:05.284Z,54.89
2023-05-09T00:46:07.488Z,54.86
2023-05-09T00:47:09.387Z,54.50
2023-05-09T00:48:11.493Z,55.23
2023-05-09T00:49:13.768Z,54.98
2023-05-09T00:50:16.130Z,54.61
2023-05-09T00:51:18.483Z,55.01
2023-05-09T00:52:25.681Z,54.75
2023-05-09T00:53:27.944Z,55.15
2023-05-09T00:54:30.038Z,54.52
2023-05-09T00:55:32.372Z,55.14
2023-05-09T00:56:34.367Z,54.80
2023-05-09T00:57:37.247Z,54.62
2023-05-09T00:58:39.088Z,54.51
2023-05-09T00:59:41.098Z,54.57
2023-05-09T01:00:43.411Z,54.26
2023-05-09T01:01:46.213Z,54.50
2023-05-09T01:02:55.149Z,54.35
2023-05-09T01:03:57.252Z,54.85
2023-05-09T01:04:59.219Z,54.65
2023-05-09T01:06:25.925Z,54.49
2023-05-09T01:08:17.589Z,54.37
2023-05-09T01:09:42.288Z,54.04
2023-05-09T01:10:59.738Z,53.78
2023-05-09T01:12:23.611Z,53.92
2023-05-09T01:14:08.734Z,54.08
2023-05-09T01:15:26.661Z,53.73
2023-05-09T01:16:43.726Z,53.95
2023-05-09T01:18:08.180Z,53.56
2023-05-09T01:19:42.963Z,54.53
2023-05-09T01:21:11.665Z,54.35
2023-05-09T01:22:16.380Z,54.11
2023-05-09T01:23:45.356Z,54.11
2023-05-09T01:25:23.158Z,53.68
2023-05-09T01:26:41.719Z,53.53
2023-05-09T01:28:14.331Z,53.12
2023-05-09T01:29:38.220Z,54.32
2023-05-09T01:30:45.793Z,53.16
2023-05-09T01:31:49.830Z,54.22
2023-05-09T01:32:59.426Z,53.72
2023-05-09T01:34:05.264Z,53.77
2023-05-09T01:35:09.688Z,53.36
2023-05-09T01:36:18.439Z,53.14
2023-05-09T01:37:31.892Z,53.21
2023-05-09T01:38:38.904Z,54.18
2023-05-09T01:39:49.185Z,53.72
2023-05-09T01:40:56.858Z,54.32
2023-05-09T01:42:03.949Z,53.76
2023-05-09T01:43:09.956Z,54.00
2023-05-09T01:44:15.829Z,53.40
2023-05-09T01:45:19.919Z,54.19
2023-05-09T01:46:23.756Z,54.08
2023-05-09T01:47:27.477Z,53.98
2023-05-09T01:48:31.728Z,53.87
2023-05-09T01:49:37.640Z,53.97
2023-05-09T01:50:42.891Z,54.09
2023-05-09T01:51:45.910Z,54.90
2023-05-09T01:52:53.225Z,54.30
2023-05-09T01:53:58.457Z,54.11
2023-05-09T01:55:02.385Z,54.04
2023-05-09T01:56:07.846Z,54.08
2023-05-09T01:57:12.800Z,54.20
2023-05-09T01:58:18.209Z,54.34
2023-05-09T01:59:21.629Z,54.39
2023-05-09T02:00:25.094Z,54.07
2023-05-09T02:01:28.306Z,53.64
2023-05-09T02:02:30.924Z,53.80
2023-05-09T02:03:35.907Z,54.15
2023-05-09T02:04:40.516Z,54.38
2023-05-09T02:05:44.277Z,53.33
2023-05-09T02:06:52.900Z,53.39
2023-05-09T02:07:58.524Z,53.89
2023-05-09T02:09:02.944Z,53.47
2023-05-09T02:10:09.032Z,53.24
2023-05-09T02:11:11.082Z,53.52
2023-05-09T02:12:13.693Z,52.49
2023-05-09T02:13:15.865Z,52.73
2023-05-09T02:14:17.904Z,52.65
2023-05-09T02:15:20.115Z,52.46
2023-05-09T02:16:22.469Z,53.22
2023-05-09T02:17:24.473Z,52.97
2023-05-09T02:18:26.358Z,52.93
2023-05-09T02:19:28.375Z,52.61
2023-05-09T02:20:31.376Z,53.04
2023-05-09T02:21:33.411Z,52.19
2023-05-09T02:22:35.875Z,53.06
2023-05-09T02:23:37.729Z,52.28
2023-05-09T02:24:40.799Z,53.08
2023-05-09T02:25:43.274Z,52.62
2023-05-09T02:26:45.338Z,52.03
2023-05-09T02:27:47.536Z,52.50
2023-05-09T02:28:50.885Z,53.04
2023-05-09T02:29:58.354Z,52.38
2023-05-09T02:31:07.025Z,52.08
2023-05-09T02:32:16.301Z,51.95
2023-05-09T02:33:18.300Z,52.46
2023-05-09T02:34:21.062Z,51.84
2023-05-09T02:35:27.139Z,52.44
2023-05-09T02:36:30.023Z,52.46
2023-05-09T02:37:33.832Z,51.81
2023-05-09T02:38:36.831Z,52.39
2023-05-09T02:39:38.883Z,52.36
2023-05-09T02:40:44.412Z,51.88
2023-05-09T02:41:49.769Z,51.42
2023-05-09T02:42:51.598Z,51.97
2023-05-09T02:43:53.374Z,51.90
2023-05-09T02:44:56.272Z,52.41
2023-05-09T02:45:58.033Z,51.23
2023-05-09T02:47:00.142Z,51.72
2023-05-09T02:48:01.943Z,51.55
2023-05-09T02:49:03.752Z,51.62
2023-05-09T02:50:06.830Z,51.16
2023-05-09T02:51:08.608Z,50.71
2023-05-09T02:52:11.453Z,51.33
2023-05-09T02:53:13.239Z,50.99
2023-05-09T02:54:15.015Z,51.73
2023-05-09T02:55:16.909Z,51.21
2023-05-09T02:56:19.045Z,51.60
2023-05-09T02:57:21.129Z,51.82
2023-05-09T02:58:22.921Z,51.14
2023-05-09T02:59:25.760Z,51.90
2023-05-09T03:00:27.856Z,51.41
2023-05-09T03:01:29.676Z,52.08
2023-05-09T03:02:31.638Z,51.72
2023-05-09T03:03:34.819Z,51.50
2023-05-09T03:04:36.902Z,51.63
2023-05-09T03:05:38.846Z,51.84
2023-05-09T03:06:41.052Z,51.80
2023-05-09T03:07:42.817Z,51.69
2023-05-09T03:08:44.559Z,51.83
2023-05-09T03:09:46.318Z,51.97
2023-05-09T03:10:48.162Z,52.23
2023-05-09T03:11:50.543Z,51.45
2023-05-09T03:12:52.375Z,51.29
2023-05-09T03:13:54.153Z,51.85
2023-05-09T03:14:55.902Z,52.19
2023-05-09T03:15:57.656Z,52.75
2023-05-09T03:16:59.489Z,52.04
2023-05-09T03:18:01.301Z,52.26
2023-05-09T03:19:03.952Z,52.29
2023-05-09T03:20:07.782Z,52.18
2023-05-09T03:21:09.689Z,52.04
2023-05-09T03:22:11.467Z,51.87
2023-05-09T03:23:13.290Z,51.89
2023-05-09T03:24:15.165Z,51.54
2023-05-09T03:25:17.292Z,52.81
2023-05-09T03:26:19.343Z,52.42
2023-05-09T03:27:21.104Z,52.24
2023-05-09T03:28:22.941Z,52.42
2023-05-09T03:29:24.733Z,51.90
2023-05-09T03:30:27.152Z,52.68
2023-05-09T03:31:28.998Z,52.36
2023-05-09T03:32:30.905Z,52.27
2023-05-09T03:33:32.822Z,52.38
2023-05-09T03:34:34.690Z,51.91
2023-05-09T03:35:36.446Z,52.40
2023-05-09T03:36:38.262Z,52.57
2023-05-09T03:37:40.077Z,52.72
2023-05-09T03:38:41.801Z,52.36
2023-05-09T03:39:43.545Z,52.48
2023-05-09T03:40:45.340Z,52.47
2023-05-09T03:41:47.105Z,52.48
2023-05-09T03:42:48.896Z,52.12
2023-05-09T03:43:50.673Z,52.73
2023-05-09T03:44:52.892Z,52.23
2023-05-09T03:45:54.640Z,52.82
2023-05-09T03:46:56.382Z,52.84
2023-05-09T03:47:58.345Z,53.07
2023-05-09T03:49:00.232Z,52.88
2023-05-09T03:50:02.230Z,53.14
2023-05-09T03:51:04.090Z,53.10
2023-05-09T03:52:05.977Z,53.32
2023-05-09T03:53:07.765Z,53.34
2023-05-09T03:54:09.719Z,53.71
2023-05-09T03:55:12.008Z,53.51
2023-05-09T03:56:14.844Z,53.25
2023-05-09T03:57:16.627Z,52.94
2023-05-09T03:58:19.382Z,53.04
2023-05-09T03:59:21.270Z,53.11
2023-05-09T04:00:23.226Z,53.39
2023-05-09T04:01:25.567Z,53.08
2023-05-09T04:02:27.704Z,53.62
2023-05-09T04:03:29.817Z,53.95
2023-05-09T04:04:31.753Z,53.76
2023-05-09T04:05:33.702Z,54.10
2023-05-09T04:06:36.292Z,53.21
2023-05-09T04:07:38.199Z,53.90
2023-05-09T04:08:40.234Z,53.48
2023-05-09T04:09:42.819Z,54.11
2023-05-09T04:10:44.679Z,54.13
2023-05-09T04:11:46.628Z,53.56
2023-05-09T04:12:48.558Z,53.27
2023-05-09T04:13:50.458Z,53.68
2023-05-09T04:14:52.207Z,54.61
2023-05-09T04:15:54.094Z,54.60
2023-05-09T04:16:55.920Z,53.96
2023-05-09T04:17:57.797Z,53.53
2023-05-09T04:18:59.535Z,54.68
2023-05-09T04:20:01.353Z,53.85
2023-05-09T04:21:03.229Z,53.86
2023-05-09T04:22:05.151Z,54.12
2023-05-09T04:23:06.901Z,54.46
2023-05-09T04:24:08.812Z,54.56
2023-05-09T04:25:12.387Z,54.32
2023-05-09T04:26:15.492Z,54.83
2023-05-09T04:27:17.248Z,55.05
2023-05-09T04:28:18.986Z,54.47
2023-05-09T04:29:20.780Z,55.28
2023-05-09T04:30:22.642Z,55.00
2023-05-09T04:31:24.483Z,54.22
2023-05-09T04:32:26.959Z,54.77
2023-05-09T04:33:29.086Z,54.62
2023-05-09T04:34:31.677Z,55.26
2023-05-09T04:35:33.475Z,54.90
2023-05-09T04:36:35.227Z,54.85
2023-05-09T04:37:37.017Z,54.92
2023-05-09T04:38:38.800Z,54.86
2023-05-09T04:39:40.675Z,55.03
2023-05-09T04:40:42.563Z,55.39
2023-05-09T04:41:46.529Z,55.12
2023-05-09T04:42:48.377Z,54.88
2023-05-09T04:43:50.119Z,54.99
2023-05-09T04:44:52.437Z,55.26
2023-05-09T04:45:54.538Z,55.67
2023-05-09T04:46:57.978Z,55.49
2023-05-09T04:47:59.768Z,55.66
2023-05-09T04:49:01.722Z,54.66
2023-05-09T04:50:04.112Z,55.90
2023-05-09T04:51:06.080Z,55.34
2023-05-09T04:52:08.446Z,55.19
2023-05-09T04:53:10.977Z,55.23
2023-05-09T04:54:12.770Z,55.29
2023-05-09T04:55:14.993Z,55.52
2023-05-09T04:56:16.969Z,54.94
2023-05-09T04:57:19.181Z,54.98
2023-05-09T04:58:21.106Z,55.00
2023-05-09T04:59:23.436Z,55.85
2023-05-09T05:00:25.520Z,55.57
2023-05-09T05:01:27.346Z,55.04
2023-05-09T05:02:29.243Z,55.25
2023-05-09T05:03:31.836Z,55.41
2023-05-09T05:04:33.643Z,54.78
2023-05-09T05:05:37.522Z,55.57
2023-05-09T05:06:39.613Z,55.54
2023-05-09T05:07:41.386Z,55.71
2023-05-09T05:08:43.247Z,55.74
2023-05-09T05:09:45.026Z,54.83
2023-05-09T05:10:47.523Z,55.17
2023-05-09T05:11:59.566Z,54.86
2023-05-09T05:13:03.806Z,55.31
2023-05-09T05:14:05.574Z,54.99
2023-05-09T05:15:07.994Z,55.32
2023-05-09T05:16:09.956Z,54.57
2023-05-09T05:17:11.776Z,54.96
2023-05-09T05:18:13.554Z,55.43
2023-05-09T05:19:15.341Z,55.17
2023-05-09T05:20:17.146Z,55.14
2023-05-09T05:21:18.931Z,55.06
2023-05-09T05:22:20.762Z,54.43
2023-05-09T05:23:22.599Z,54.71
2023-05-09T05:24:24.422Z,54.74
2023-05-09T05:25:26.995Z,55.13
2023-05-09T05:26:29.155Z,55.06
2023-05-09T05:27:31.793Z,53.87
2023-05-09T05:28:33.569Z,54.26
2023-05-09T05:29:35.341Z,54.20
2023-05-09T05:30:37.141Z,53.93
2023-05-09T05:31:38.895Z,53.67
2023-05-09T05:32:40.892Z,53.98
2023-05-09T05:33:42.622Z,53.99
2023-05-09T05:34:44.380Z,53.96
2023-05-09T05:35:46.245Z,53.86
2023-05-09T05:36:47.994Z,53.66
2023-05-09T05:37:49.741Z,53.98
2023-05-09T05:38:51.578Z,53.64
2023-05-09T05:39:54.358Z,53.69
2023-05-09T05:40:56.206Z,53.63
2023-05-09T05:41:57.958Z,53.70
2023-05-09T05:42:59.718Z,53.56
2023-05-09T05:44:01.504Z,53.55
2023-05-09T05:45:06.342Z,53.18
2023-05-09T05:46:08.147Z,52.93
2023-05-09T05:47:09.911Z,53.00
2023-05-09T05:48:11.725Z,52.61
2023-05-09T05:49:13.526Z,52.16
2023-05-09T05:50:15.284Z,52.42
2023-05-09T05:51:17.053Z,52.66
2023-05-09T05:52:19.208Z,51.93
2023-05-09T05:53:21.029Z,52.03
2023-05-09T05:54:22.865Z,52.06
2023-05-09T05:55:24.706Z,52.23
2023-05-09T05:56:26.468Z,51.46
2023-05-09T05:57:28.255Z,50.89
2023-05-09T05:58:30.100Z,50.99
2023-05-09T05:59:31.847Z,50.91
2023-05-09T06:00:33.691Z,51.04
2023-05-09T06:01:35.447Z,50.60
2023-05-09T06:02:38.078Z,50.39
2023-05-09T06:03:40.087Z,50.95
2023-05-09T06:04:42.354Z,50.04
2023-05-09T06:05:46.398Z,49.67
2023-05-09T06:06:48.246Z,49.14
2023-05-09T06:07:49.973Z,49.20
2023-05-09T06:08:51.855Z,48.22
2023-05-09T06:09:53.616Z,48.76
2023-05-09T06:10:55.367Z,48.70
2023-05-09T06:11:57.177Z,48.06
2023-05-09T06:12:58.942Z,47.99
2023-05-09T06:14:00.718Z,47.74
2023-05-09T06:15:05.696Z,47.95
2023-05-09T06:16:18.761Z,47.50
2023-05-09T06:17:22.119Z,47.29
2023-05-09T06:18:23.983Z,47.21
2023-05-09T06:19:25.923Z,47.24
2023-05-09T06:20:27.957Z,47.47
2023-05-09T06:21:30.130Z,46.79
2023-05-09T06:22:31.944Z,46.58
2023-05-09T06:23:34.124Z,46.78
2023-05-09T06:24:36.623Z,46.46
2023-05-09T06:25:38.580Z,45.88
2023-05-09T06:26:40.571Z,45.41
2023-05-09T06:27:42.597Z,45.34
2023-05-09T06:28:44.435Z,45.42
2023-05-09T06:29:46.167Z,45.27
2023-05-09T06:30:47.914Z,45.03
2023-05-09T06:31:49.712Z,45.64
2023-05-09T06:32:51.526Z,45.13
2023-05-09T06:33:53.972Z,45.08
2023-05-09T06:34:55.959Z,45.20
2023-05-09T06:36:00.226Z,45.62
2023-05-09T06:37:02.012Z,45.70
2023-05-09T06:38:03.880Z,45.38
2023-05-09T06:39:05.914Z,44.86
2023-05-09T06:40:09.022Z,44.86
2023-05-09T06:41:10.804Z,44.70
2023-05-09T06:42:12.672Z,44.93
2023-05-09T06:43:14.500Z,44.29
2023-05-09T06:44:16.209Z,44.63
2023-05-09T06:45:18.331Z,44.36
2023-05-09T06:46:20.547Z,43.80
2023-05-09T06:47:22.405Z,43.70
2023-05-09T06:48:24.265Z,43.97
2023-05-09T06:49:26.429Z,43.97
2023-05-09T06:50:29.088Z,43.41
2023-05-09T06:51:32.004Z,43.49
2023-05-09T06:52:33.777Z,43.69
2023-05-09T06:53:35.591Z,42.37
2023-05-09T06:54:37.377Z,42.72
2023-05-09T06:55:39.194Z,43.13
2023-05-09T06:56:41.176Z,43.09
2023-05-09T06:57:43.094Z,42.51
2023-05-09T06:58:44.875Z,42.66
2023-05-09T06:59:46.756Z,42.80
2023-05-09T07:00:49.061Z,42.72
2023-05-09T07:01:50.878Z,42.17
2023-05-09T07:02:52.887Z,42.24
2023-05-09T07:03:54.723Z,41.73
2023-05-09T07:05:00.251Z,42.54
2023-05-09T07:06:02.082Z,41.89
2023-05-09T07:07:03.859Z,42.33
2023-05-09T07:08:05.742Z,41.81
2023-05-09T07:09:08.590Z,42.03
2023-05-09T07:10:12.594Z,41.72
2023-05-09T07:11:15.072Z,41.63
2023-05-09T07:12:16.949Z,41.15
2023-05-09T07:13:18.796Z,41.48
2023-05-09T07:14:20.793Z,41.35
2023-05-09T07:15:32.953Z,41.28
2023-05-09T07:16:42.818Z,40.29
2023-05-09T07:17:44.784Z,40.45
2023-05-09T07:18:46.715Z,40.22
2023-05-09T07:19:48.538Z,39.69
2023-05-09T07:20:50.954Z,39.71
2023-05-09T07:21:52.794Z,39.22
2023-05-09T07:22:54.552Z,39.35
2023-05-09T07:23:56.283Z,39.45
2023-05-09T07:24:58.247Z,39.39
2023-05-09T07:26:01.308Z,40.01
2023-05-09T07:27:03.840Z,39.91
2023-05-09T07:28:06.036Z,40.05
2023-05-09T07:29:07.869Z,38.74
2023-05-09T07:30:10.465Z,38.64
2023-05-09T07:31:12.402Z,38.37
2023-05-09T07:32:14.345Z,38.08
2023-05-09T07:33:16.150Z,38.55
2023-05-09T07:34:19.828Z,38.33
2023-05-09T07:35:22.341Z,37.54
2023-05-09T07:36:24.328Z,37.95
2023-05-09T07:37:26.751Z,38.70
2023-05-09T07:38:28.825Z,38.21
2023-05-09T07:39:30.887Z,37.94
2023-05-09T07:40:36.306Z,37.47
2023-05-09T07:41:38.105Z,37.63
2023-05-09T07:42:39.898Z,37.46
2023-05-09T07:43:41.701Z,36.42
2023-05-09T07:44:43.602Z,36.06
2023-05-09T07:45:47.100Z,35.65
2023-05-09T07:46:49.037Z,35.49
2023-05-09T07:47:50.884Z,35.46
2023-05-09T07:48:52.721Z,35.08
2023-05-09T07:49:54.508Z,35.27
2023-05-09T07:50:56.450Z,34.97
2023-05-09T07:51:58.388Z,35.68
2023-05-09T07:53:00.190Z,35.51
2023-05-09T07:54:02.047Z,35.15
2023-05-09T07:55:04.226Z,34.57
2023-05-09T07:56:08.922Z,34.28
2023-05-09T07:57:11.065Z,34.00
2023-05-09T07:58:12.903Z,33.82
2023-05-09T07:59:14.660Z,33.87
2023-05-09T08:00:17.386Z,33.60
2023-05-09T08:01:19.135Z,33.70
2023-05-09T08:02:21.009Z,33.65
2023-05-09T08:03:22.927Z,33.46
2023-05-09T08:04:25.013Z,33.99
2023-05-09T08:05:26.902Z,34.11
2023-05-09T08:06:28.883Z,34.14
2023-05-09T08:07:31.094Z,33.95
2023-05-09T08:08:33.327Z,33.85
2023-05-09T08:09:35.283Z,34.11
2023-05-09T08:10:37.080Z,35.01
2023-05-09T08:11:39.026Z,34.68
2023-05-09T08:12:40.831Z,33.79
2023-05-09T08:13:42.622Z,33.95
2023-05-09T08:14:44.364Z,34.42
2023-05-09T08:15:46.174Z,33.66
2023-05-09T08:16:48.004Z,33.64
2023-05-09T08:17:49.797Z,33.68
2023-05-09T08:18:51.663Z,33.32
2023-05-09T08:19:53.453Z,33.16
2023-05-09T08:20:55.351Z,32.59
2023-05-09T08:21:57.091Z,33.24
2023-05-09T08:22:58.851Z,32.52
2023-05-09T08:24:01.779Z,33.16
2023-05-09T08:25:03.570Z,32.68
2023-05-09T08:26:05.676Z,32.75
2023-05-09T08:27:07.457Z,33.31
2023-05-09T08:28:09.427Z,33.55
2023-05-09T08:29:11.959Z,32.98
2023-05-09T08:30:14.853Z,32.65
2023-05-09T08:31:16.856Z,32.48
2023-05-09T08:32:19.858Z,32.60
2023-05-09T08:33:21.652Z,31.91
2023-05-09T08:34:23.472Z,31.76
2023-05-09T08:35:25.326Z,31.89
2023-05-09T08:36:27.088Z,32.13
2023-05-09T08:37:29.077Z,31.60
2023-05-09T08:38:30.923Z,30.83
2023-05-09T08:39:34.900Z,31.24
2023-05-09T08:40:38.082Z,31.40
2023-05-09T08:41:40.072Z,30.98
2023-05-09T08:42:46.072Z,31.53
2023-05-09T08:43:49.787Z,31.68
2023-05-09T08:44:51.898Z,31.44
2023-05-09T08:46:05.583Z,31.35
2023-05-09T08:47:08.375Z,31.40
2023-05-09T08:48:10.412Z,31.22
2023-05-09T08:49:12.567Z,30.52
2023-05-09T08:50:15.537Z,30.19
2023-05-09T08:51:18.117Z,30.88
2023-05-09T08:52:21.520Z,31.09
2023-05-09T08:53:23.640Z,31.04
2023-05-09T08:54:25.630Z,31.28
2023-05-09T08:55:28.765Z,30.85
2023-05-09T08:56:31.760Z,30.93
2023-05-09T08:57:37.496Z,30.89
2023-05-09T08:58:40.231Z,31.00
2023-05-09T08:59:43.088Z,30.95
2023-05-09T09:00:47.117Z,31.11
2023-05-09T09:01:49.775Z,31.38
2023-05-09T09:02:53.103Z,31.40
2023-05-09T09:03:55.669Z,31.56
2023-05-09T09:04:57.551Z,31.71
2023-05-09T09:06:00.991Z,30.61
2023-05-09T09:07:06.263Z,30.74
2023-05-09T09:08:10.891Z,30.36
2023-05-09T09:09:15.292Z,30.27
2023-05-09T09:10:17.701Z,30.05
2023-05-09T09:11:20.605Z,30.59
2023-05-09T09:12:24.225Z,30.64
2023-05-09T09:13:26.854Z,30.46
2023-05-09T09:14:31.305Z,30.77
2023-05-09T09:15:37.584Z,30.68
2023-05-09T09:16:44.397Z,30.75
2023-05-09T09:17:51.958Z,30.29
2023-05-09T09:18:58.452Z,30.00
2023-05-09T09:20:05.812Z,30.08
2023-05-09T09:21:12.189Z,29.48
2023-05-09T09:22:19.024Z,30.01
2023-05-09T09:23:27.086Z,30.08
2023-05-09T09:24:30.786Z,30.01
2023-05-09T09:25:32.552Z,30.10
2023-05-09T09:26:34.355Z,29.43
2023-05-09T09:27:36.437Z,29.97
2023-05-09T09:28:38.278Z,29.17
2023-05-09T09:29:40.184Z,28.54
2023-05-09T09:30:48.728Z,28.38
2023-05-09T09:31:55.169Z,28.56
2023-05-09T09:32:59.629Z,29.14
2023-05-09T09:34:03.358Z,29.39
2023-05-09T09:35:12.302Z,29.80
2023-05-09T09:36:14.300Z,29.03
2023-05-09T09:37:23.539Z,29.36
2023-05-09T09:38:25.419Z,29.11
2023-05-09T09:39:27.211Z,29.40
2023-05-09T09:40:29.032Z,29.55
2023-05-09T09:41:32.748Z,29.36
2023-05-09T09:42:47.838Z,29.64
2023-05-09T09:43:49.605Z,29.40
2023-05-09T09:45:03.318Z,28.96
2023-05-09T09:46:05.915Z,28.99
2023-05-09T09:47:10.988Z,28.81
2023-05-09T09:48:12.807Z,29.31
2023-05-09T09:49:21.372Z,28.19
2023-05-09T09:50:24.906Z,29.12
2023-05-09T09:51:28.987Z,29.49
2023-05-09T09:52:30.820Z,29.43
2023-05-09T09:53:43.475Z,29.05
2023-05-09T09:54:45.948Z,29.49
2023-05-09T09:55:52.005Z,29.17
2023-05-09T09:56:55.367Z,29.33
2023-05-09T09:57:57.423Z,29.95
2023-05-09T09:59:23.495Z,29.13
2023-05-09T10:00:28.432Z,29.00
2023-05-09T10:01:30.249Z,28.88
2023-05-09T10:02:32.549Z,28.57
2023-05-09T10:03:48.133Z,28.46
2023-05-09T10:04:49.993Z,27.94
2023-05-09T10:06:02.650Z,27.83
2023-05-09T10:07:12.892Z,27.18
2023-05-09T10:08:17.222Z,26.85
2023-05-09T10:09:19.040Z,27.14
2023-05-09T10:10:21.717Z,27.22
2023-05-09T10:11:23.636Z,27.02
2023-05-09T10:12:25.916Z,27.60
2023-05-09T10:13:29.076Z,28.07
2023-05-09T10:14:35.307Z,27.75
2023-05-09T10:15:52.321Z,27.86
2023-05-09T10:16:58.072Z,27.70
2023-05-09T10:18:04.320Z,27.61
2023-05-09T10:19:06.887Z,28.39
2023-05-09T10:20:12.547Z,27.65
2023-05-09T10:21:15.774Z,28.49
2023-05-09T10:22:19.884Z,28.24
2023-05-09T10:23:25.355Z,28.22
2023-05-09T10:24:44.976Z,28.36
2023-05-09T10:26:15.550Z,28.59
2023-05-09T10:27:22.986Z,29.04
2023-05-09T10:28:35.024Z,28.75
2023-05-09T10:29:49.134Z,28.72
2023-05-09T10:31:08.862Z,28.82
2023-05-09T10:33:02.811Z,28.60
2023-05-09T10:34:12.007Z,29.56
2023-05-09T10:35:17.129Z,29.30
2023-05-09T10:36:23.792Z,29.05
2023-05-09T10:37:26.651Z,29.01
2023-05-09T10:38:30.366Z,28.88
2023-05-09T10:39:32.976Z,29.38
2023-05-09T10:40:35.602Z,29.42
2023-05-09T10:41:40.135Z,28.78
2023-05-09T10:42:45.652Z,29.14
2023-05-09T10:43:48.416Z,29.42
2023-05-09T10:44:53.730Z,29.29
2023-05-09T10:45:55.879Z,30.19
2023-05-09T10:46:59.398Z,29.40
2023-05-09T10:48:03.958Z,29.81
2023-05-09T10:49:07.152Z,29.48
2023-05-09T10:50:13.093Z,29.88
2023-05-09T10:51:16.318Z,30.47
2023-05-09T10:52:18.944Z,29.85
2023-05-09T10:53:24.173Z,29.12
2023-05-09T10:54:31.046Z,29.07
2023-05-09T10:56:00.231Z,29.62
2023-05-09T10:57:02.166Z,29.64
2023-05-09T10:58:27.573Z,29.85
2023-05-09T10:59:42.827Z,29.10
2023-05-09T11:00:45.692Z,30.29
2023-05-09T11:02:00.853Z,30.26
2023-05-09T11:03:08.960Z,29.96
2023-05-09T11:04:16.640Z,30.36
2023-05-09T11:05:20.291Z,30.13
2023-05-09T11:06:51.948Z,30.87
2023-05-09T11:08:31.071Z,30.47
2023-05-09T11:09:37.999Z,29.69
2023-05-09T11:10:43.179Z,30.04
2023-05-09T11:11:54.384Z,29.54
2023-05-09T11:13:00.782Z,29.68
2023-05-09T11:14:02.697Z,29.09
2023-05-09T11:15:08.075Z,28.57
2023-05-09T11:16:12.245Z,29.21
2023-05-09T11:17:23.220Z,29.76
2023-05-09T11:18:25.398Z,29.42
2023-05-09T11:19:45.353Z,29.99
2023-05-09T11:20:49.602Z,30.28
2023-05-09T11:22:03.324Z,29.67
2023-05-09T11:23:06.813Z,29.54
2023-05-09T11:24:17.618Z,29.84
2023-05-09T11:25:28.477Z,29.69
2023-05-09T11:26:31.235Z,29.55
2023-05-09T11:27:51.965Z,30.01
2023-05-09T11:28:54.784Z,29.79
2023-05-09T11:29:59.868Z,30.40
2023-05-09T11:31:19.166Z,30.17
2023-05-09T11:32:31.955Z,29.72
2023-05-09T11:33:38.357Z,29.88
2023-05-09T11:34:47.801Z,29.46
2023-05-09T11:36:29.915Z,29.61
2023-05-09T11:37:32.497Z,30.13
2023-05-09T11:38:42.768Z,30.35
2023-05-09T11:40:04.769Z,30.77
2023-05-09T11:41:07.306Z,29.61
2023-05-09T11:42:09.387Z,29.46
2023-05-09T11:43:12.598Z,29.79
2023-05-09T11:44:20.957Z,29.76
2023-05-09T11:45:27.429Z,30.25
2023-05-09T11:46:29.535Z,30.03
2023-05-09T11:47:31.525Z,30.40
2023-05-09T11:48:42.148Z,30.26
2023-05-09T11:49:44.749Z,29.65
2023-05-09T11:50:49.436Z,29.61
2023-05-09T11:51:51.197Z,30.04
2023-05-09T11:52:54.228Z,30.11
2023-05-09T11:53:56.113Z,29.73
2023-05-09T11:54:59.370Z,30.52
2023-05-09T11:56:07.794Z,30.48
2023-05-09T11:57:10.009Z,30.16
2023-05-09T11:58:12.183Z,30.08
2023-05-09T11:59:15.749Z,30.10
2023-05-09T12:00:23.607Z,29.56
2023-05-09T12:01:25.658Z,30.42
2023-05-09T12:02:28.548Z,30.34
2023-05-09T12:03:30.899Z,29.89
2023-05-09T12:04:34.302Z,29.80
2023-05-09T12:05:39.485Z,29.35
2023-05-09T12:06:48.263Z,29.02
2023-05-09T12:07:51.024Z,29.09
2023-05-09T12:08:56.013Z,28.97
2023-05-09T12:10:02.742Z,29.23
2023-05-09T12:11:11.549Z,29.55
2023-05-09T12:12:14.431Z,29.45
2023-05-09T12:13:16.395Z,29.38
2023-05-09T12:14:30.511Z,29.51
2023-05-09T12:15:43.091Z,29.29
2023-05-09T12:16:47.487Z,28.73
2023-05-09T12:18:06.789Z,28.78
2023-05-09T12:19:10.362Z,29.09
2023-05-09T12:20:12.680Z,28.30
2023-05-09T12:21:15.556Z,28.63
2023-05-09T12:22:17.364Z,27.60
2023-05-09T12:23:19.675Z,28.08
2023-05-09T12:24:24.592Z,28.19
2023-05-09T12:25:26.955Z,28.35
2023-05-09T12:26:29.447Z,28.40
2023-05-09T12:27:33.052Z,27.99
2023-05-09T12:28:36.666Z,28.58
2023-05-09T12:29:40.335Z,27.57
2023-05-09T12:30:42.257Z,28.85
2023-05-09T12:31:44.745Z,29.09
2023-05-09T12:32:46.823Z,29.33
2023-05-09T12:33:48.924Z,28.82
2023-05-09T12:34:52.036Z,29.46
2023-05-09T12:36:10.931Z,28.82
2023-05-09T12:37:20.290Z,28.34
2023-05-09T12:38:23.094Z,29.15
2023-05-09T12:39:24.873Z,28.67
2023-05-09T12:40:26.840Z,28.72
2023-05-09T12:41:39.177Z,29.59
2023-05-09T12:42:46.446Z,28.61
2023-05-09T12:43:51.490Z,28.78
2023-05-09T12:44:53.620Z,28.70
2023-05-09T12:45:55.426Z,28.66
2023-05-09T12:47:03.701Z,29.39
2023-05-09T12:48:06.059Z,29.54
2023-05-09T12:49:21.862Z,29.14
2023-05-09T12:50:36.724Z,28.91
2023-05-09T12:51:53.467Z,29.69
2023-05-09T12:53:02.522Z,29.08
2023-05-09T12:54:07.981Z,29.20
2023-05-09T12:55:13.974Z,28.97
2023-05-09T12:56:20.230Z,29.26
2023-05-09T12:57:25.188Z,29.29
2023-05-09T12:58:33.657Z,29.42
2023-05-09T12:59:35.416Z,29.40
2023-05-09T13:00:45.349Z,28.62
2023-05-09T13:01:54.630Z,28.66
2023-05-09T13:02:56.842Z,28.67
2023-05-09T13:04:06.618Z,29.13
2023-05-09T13:05:15.897Z,28.42
2023-05-09T13:06:18.133Z,28.93
2023-05-09T13:07:19.905Z,28.58
2023-05-09T13:08:21.899Z,28.79
2023-05-09T13:09:26.168Z,28.89
2023-05-09T13:10:31.073Z,29.11
2023-05-09T13:11:32.940Z,29.04
2023-05-09T13:12:34.940Z,29.09
2023-05-09T13:13:37.556Z,28.73
2023-05-09T13:14:39.406Z,28.91
2023-05-09T13:15:41.420Z,28.67
2023-05-09T13:16:44.760Z,29.27
2023-05-09T13:17:48.659Z,29.01
2023-05-09T13:18:50.644Z,29.63
2023-05-09T13:19:52.401Z,29.42
2023-05-09T13:20:54.217Z,29.75
2023-05-09T13:21:56.048Z,29.88
2023-05-09T13:22:57.834Z,28.50
2023-05-09T13:23:59.625Z,28.83
2023-05-09T13:25:01.861Z,28.96
2023-05-09T13:26:03.718Z,29.39
2023-05-09T13:27:05.663Z,29.11
2023-05-09T13:28:07.851Z,29.11
2023-05-09T13:29:09.657Z,28.83
2023-05-09T13:30:12.821Z,29.30
2023-05-09T13:31:15.026Z,29.33
2023-05-09T13:32:16.993Z,29.20
2023-05-09T13:33:25.945Z,28.85
2023-05-09T13:34:28.531Z,29.18
2023-05-09T13:35:30.369Z,29.12
2023-05-09T13:36:32.517Z,29.10
2023-05-09T13:37:35.556Z,29.39
2023-05-09T13:38:40.471Z,29.01
2023-05-09T13:39:42.339Z,29.84
2023-05-09T13:40:44.082Z,29.40
2023-05-09T13:41:45.956Z,29.49
2023-05-09T13:42:48.931Z,29.09
2023-05-09T13:43:51.630Z,29.85
2023-05-09T13:44:53.420Z,29.39
2023-05-09T13:45:55.192Z,30.08
2023-05-09T13:46:58.606Z,29.79
2023-05-09T13:48:00.406Z,29.63
2023-05-09T13:49:02.264Z,29.06